Time;durP1;ratioP1;P1;durP2;ratioP2;P2;SDS_P1;SDS_P2;PMS_P1;PMS_P2;Temp;Humidity;BMP_temperature;BMP_pressure;BME280_temperature;BME280_humidity;BME280_pressure;Samples;Min_cycle;Max_cycle;Signal;HPM_P1;HPM_P2
2023/01/11 00:00:44;;;;;;;15.45;4.10;;;;;;;6.55;88.77;100146.88;4960577;28;20050;-78
2023/01/11 00:03:11;;;;;;;17.70;5.10;;;;;;;6.55;88.57;100147.72;4969075;28;20049;-81
2023/01/11 00:05:39;;;;;;;17.98;5.18;;;;;;;6.53;89.13;100134.63;4968187;28;20047;-78
2023/01/11 00:08:07;;;;;;;14.50;4.63;;;;;;;6.53;89.20;100131.97;4979327;28;20070;-78
2023/01/11 00:10:34;;;;;;;11.38;3.90;;;;;;;6.50;89.82;100128.72;4960431;28;20047;-79
2023/01/11 00:13:01;;;;;;;13.85;3.15;;;;;;;6.48;89.89;100126.16;4967219;28;20489;-78
2023/01/11 00:15:28;;;;;;;20.75;4.60;;;;;;;6.49;90.24;100119.13;4972382;28;20046;-78
2023/01/11 00:17:56;;;;;;;19.13;3.60;;;;;;;6.45;90.58;100122.91;4968558;28;20048;-79
2023/01/11 00:20:23;;;;;;;18.75;4.18;;;;;;;6.44;90.74;100131.78;4971784;28;20104;-82
2023/01/11 00:22:50;;;;;;;6.03;1.85;;;;;;;6.47;90.49;100127.13;4973200;28;20096;-78
2023/01/11 00:25:17;;;;;;;3.47;1.63;;;;;;;6.47;90.91;100118.38;4958352;28;20041;-78
2023/01/11 00:27:46;;;;;;;8.40;2.20;;;;;;;6.43;91.71;100111.59;4951356;28;22571;-78
2023/01/11 00:30:12;;;;;;;9.93;2.85;;;;;;;6.40;92.27;100109.19;4981415;28;20050;-78
2023/01/11 00:32:39;;;;;;;23.08;4.60;;;;;;;6.40;92.73;100104.75;4954314;28;20488;-79
2023/01/11 00:35:07;;;;;;;30.08;7.72;;;;;;;6.40;93.11;100102.09;4953545;28;20518;-78
2023/01/11 00:37:33;;;;;;;17.65;4.93;;;;;;;6.42;92.58;100102.84;4952668;28;20041;-78
2023/01/11 00:40:00;;;;;;;18.13;3.45;;;;;;;6.42;92.84;100102.84;4956365;28;20066;-78
2023/01/11 00:47:59;;;;;;;35.33;7.78;;;;;;;6.39;93.59;100084.59;4948913;28;20050;-78
2023/01/11 00:50:30;;;;;;;39.22;8.48;;;;;;;6.37;93.73;100085.66;4967043;28;20147;-78
2023/01/11 00:52:58;;;;;;;40.72;8.23;;;;;;;6.43;93.38;100072.03;4964564;28;26049;-81
2023/01/11 00:55:25;;;;;;;32.58;7.82;;;;;;;6.41;93.42;100066.88;4947185;28;20697;-78
2023/01/11 00:57:52;;;;;;;29.90;5.90;;;;;;;6.43;93.44;100064.13;4980431;28;20532;-78
2023/01/11 01:00:20;;;;;;;35.78;7.22;;;;;;;6.45;92.87;100054.31;4987680;28;20616;-79
2023/01/11 01:02:47;;;;;;;16.38;4.28;;;;;;;6.46;92.57;100054.22;4969068;28;20081;-78
2023/01/11 01:05:15;;;;;;;15.82;3.80;;;;;;;6.50;92.06;100055.69;4934608;28;20047;-78
2023/01/11 01:07:42;;;;;;;14.63;3.03;;;;;;;6.53;91.76;100046.72;4966679;28;20445;-78
2023/01/11 01:10:09;;;;;;;9.88;2.30;;;;;;;6.54;91.12;100040.50;4985289;28;20044;-78
2023/01/11 01:15:22;;;;;;;7.15;1.33;;;;;;;6.57;90.59;100045.56;4952543;28;20135;-78
2023/01/11 01:17:52;;;;;;;6.13;2.17;;;;;;;6.58;90.52;100043.78;4934537;28;20038;-78
2023/01/11 01:20:20;;;;;;;6.50;1.88;;;;;;;6.60;90.29;100049.78;4947476;28;20068;-78
2023/01/11 01:22:47;;;;;;;8.40;2.00;;;;;;;6.59;89.98;100034.91;4964830;28;20045;-78
2023/01/11 01:25:14;;;;;;;6.60;1.77;;;;;;;6.54;90.62;100029.97;4982815;28;20037;-78
2023/01/11 01:27:41;;;;;;;5.57;1.77;;;;;;;6.57;90.60;100032.38;4970773;28;20042;-78
2023/01/11 01:30:09;;;;;;;7.63;2.03;;;;;;;6.56;90.37;100025.41;4952897;28;20042;-78
2023/01/11 01:32:35;;;;;;;7.55;2.08;;;;;;;6.58;90.53;100027.94;5000709;28;20073;-78
2023/01/11 01:35:02;;;;;;;10.68;2.15;;;;;;;6.58;89.95;100023.50;4963710;28;20046;-78
2023/01/11 01:37:29;;;;;;;4.57;1.80;;;;;;;6.55;90.39;100014.97;4979650;28;20489;-78
2023/01/11 01:39:56;;;;;;;3.28;1.55;;;;;;;6.54;90.71;100008.84;4962234;28;20046;-78
2023/01/11 01:42:23;;;;;;;11.70;3.58;;;;;;;6.55;90.48;100012.34;4964990;28;20045;-78
2023/01/11 01:44:57;;;;;;;18.23;4.70;;;;;;;6.51;91.00;100016.97;4953628;28;20048;-78
2023/01/11 01:47:48;;;;;;;11.73;3.25;;;;;;;6.51;90.98;100014.31;4974992;28;20042;-78
2023/01/11 01:50:22;;;;;;;10.65;2.63;;;;;;;6.50;90.96;100013.47;4922422;28;20052;-78
2023/01/11 01:52:55;;;;;;;7.72;2.47;;;;;;;6.55;90.16;100007.06;4952768;28;20193;-79
2023/01/11 01:55:26;;;;;;;6.38;1.85;;;;;;;6.57;90.46;100013.06;4956564;28;20058;-78
2023/01/11 01:57:54;;;;;;;7.13;2.13;;;;;;;6.58;89.92;99997.13;4943009;28;20437;-78
2023/01/11 02:00:21;;;;;;;3.15;1.83;;;;;;;6.59;89.91;100008.50;4974913;28;20100;-78
2023/01/11 02:02:48;;;;;;;3.78;1.67;;;;;;;6.59;90.24;100005.88;4984801;28;20042;-78
2023/01/11 02:05:16;;;;;;;4.68;1.60;;;;;;;6.59;90.79;99995.31;5017593;28;20124;-78
2023/01/11 02:07:43;;;;;;;6.20;1.60;;;;;;;6.57;90.44;99992.81;4986181;28;20073;-78
2023/01/11 02:10:20;;;;;;;4.95;2.30;;;;;;;6.53;90.69;99993.97;5003784;28;20051;-79
2023/01/11 02:12:57;;;;;;;6.22;3.25;;;;;;;6.55;91.36;100005.25;4918669;28;20047;-78
2023/01/11 02:15:23;;;;;;;10.05;2.45;;;;;;;6.58;91.12;99993.66;4959466;28;20050;-78
2023/01/11 02:17:56;;;;;;;8.00;2.05;;;;;;;6.53;91.17;100000.06;4924400;28;20134;-78
2023/01/11 02:20:34;;;;;;;8.07;2.10;;;;;;;6.47;92.35;100000.50;4935077;28;20535;-78
2023/01/11 02:23:08;;;;;;;3.42;1.75;;;;;;;6.53;91.65;99997.44;4936935;28;20541;-78
2023/01/11 02:25:44;;;;;;;6.25;2.42;;;;;;;6.47;92.73;99995.22;4928268;28;20158;-78
2023/01/11 02:28:20;;;;;;;5.25;2.63;;;;;;;6.51;92.49;99998.50;4954432;28;20039;-79
2023/01/11 02:31:10;;;;;;;7.18;2.25;;;;;;;6.43;93.11;99991.09;4927279;28;20507;-78
2023/01/11 02:33:50;;;;;;;5.50;2.15;;;;;;;6.53;91.84;99986.88;4890849;28;20054;-78
2023/01/11 02:36:43;;;;;;;4.70;1.83;;;;;;;6.52;92.06;99987.00;4922448;28;20047;-78
2023/01/11 02:39:18;;;;;;;4.30;1.73;;;;;;;6.47;91.89;99982.03;4940793;28;20047;-78
2023/01/11 02:45:02;;;;;;;5.53;1.60;;;;;;;6.52;92.62;99979.09;4958930;28;20043;-78
2023/01/11 02:47:38;;;;;;;6.65;1.85;;;;;;;6.51;93.12;99972.97;4909416;28;20876;-78
2023/01/11 02:50:17;;;;;;;6.32;2.55;;;;;;;6.53;93.39;99971.06;4947219;28;20077;-78
2023/01/11 02:52:50;;;;;;;5.65;2.70;;;;;;;6.57;92.96;99976.13;4999535;28;20042;-79
2023/01/11 02:55:23;;;;;;;5.10;1.80;;;;;;;6.56;92.87;99969.16;4969626;28;20042;-79
2023/01/11 02:57:53;;;;;;;6.28;1.67;;;;;;;6.58;92.42;99970.75;4969335;28;20040;-78
2023/01/11 03:00:21;;;;;;;3.20;1.48;;;;;;;6.55;92.52;99967.47;4945973;28;20510;-78
2023/01/11 03:03:26;;;;;;;5.00;1.40;;;;;;;6.46;93.33;99953.13;4978242;28;20128;-79
2023/01/11 03:06:20;;;;;;;5.65;1.58;;;;;;;6.47;93.40;99949.53;4918167;28;20047;-78
2023/01/11 03:08:49;;;;;;;;;;;;;;;6.35;94.81;99947.75;4960367;28;20583;-79
2023/01/11 03:14:26;;;;;;;6.65;1.70;;;;;;;6.46;93.33;99937.28;4942617;28;20054;-78
2023/01/11 03:17:13;;;;;;;5.65;1.70;;;;;;;6.51;92.63;99937.81;4952966;28;20054;-78
2023/01/11 03:19:46;;;;;;;7.93;1.85;;;;;;;6.49;93.14;99937.94;4978108;28;20072;-78
2023/01/11 03:22:19;;;;;;;5.75;2.00;;;;;;;6.50;93.39;99934.34;4983278;28;20046;-78
2023/01/11 03:24:54;;;;;;;5.85;1.90;;;;;;;6.49;93.94;99934.47;4951153;28;20050;-78
2023/01/11 03:27:26;;;;;;;7.07;2.08;;;;;;;6.55;93.24;99941.09;4999543;28;20054;-78
2023/01/11 03:30:06;;;;;;;5.63;2.47;;;;;;;6.50;93.30;99933.50;4976972;28;20045;-78
2023/01/11 03:32:45;;;;;;;4.97;2.38;;;;;;;6.49;93.59;99927.38;4972055;28;20042;-78
2023/01/11 03:35:38;;;;;;;6.95;2.42;;;;;;;6.48;93.38;99919.56;4959589;28;20125;-78
2023/01/11 03:38:14;;;;;;;7.45;2.40;;;;;;;6.51;92.77;99924.63;4933626;28;20038;-78
2023/01/11 03:40:47;;;;;;;7.35;2.60;;;;;;;6.51;93.02;99920.22;4966287;28;20559;-79
2023/01/11 03:43:15;;;;;;;5.10;2.40;;;;;;;6.53;93.45;99925.38;5004311;28;20038;-79
2023/01/11 03:46:02;;;;;;;12.13;3.95;;;;;;;6.49;93.91;99923.91;4949827;28;20572;-79
2023/01/11 03:48:48;;;;;;;7.00;2.38;;;;;;;6.48;93.62;99919.56;4936436;28;20053;-78
2023/01/11 03:51:19;;;;;;;4.47;2.20;;;;;;;6.54;93.27;99919.16;4938191;28;20046;-78
2023/01/11 03:53:48;;;;;;;7.65;2.25;;;;;;;6.55;93.04;99925.28;4981915;28;20413;-78
2023/01/11 03:56:17;;;;;;;9.70;2.95;;;;;;;6.55;93.45;99925.28;4986986;28;20042;-78
2023/01/11 03:58:44;;;;;;;7.57;2.30;;;;;;;6.57;93.43;99913.66;4969301;28;20047;-78
2023/01/11 04:01:11;;;;;;;6.75;2.45;;;;;;;6.52;94.03;99913.97;4945959;28;20058;-78
2023/01/11 04:03:38;;;;;;;8.48;3.17;;;;;;;6.51;94.04;99909.66;4985926;28;20081;-78
2023/01/11 04:06:05;;;;;;;5.57;2.60;;;;;;;6.57;93.69;99908.38;4998352;28;20048;-79
2023/01/11 04:08:31;;;;;;;8.02;2.33;;;;;;;6.58;93.93;99911.84;4975165;28;20620;-78
2023/01/11 04:10:58;;;;;;;7.78;3.13;;;;;;;6.57;93.69;99907.53;4972589;28;20057;-78
2023/01/11 04:13:25;;;;;;;6.05;2.45;;;;;;;6.59;93.18;99905.63;4969613;28;20077;-78
2023/01/11 04:15:53;;;;;;;4.15;2.60;;;;;;;6.58;93.16;99907.41;4968764;28;20489;-78
2023/01/11 04:18:23;;;;;;;10.35;2.70;;;;;;;6.58;93.17;99909.22;4968496;28;22098;-78
2023/01/11 04:20:50;;;;;;;8.02;2.75;;;;;;;6.59;93.18;99905.63;4961975;28;20042;-78
2023/01/11 04:23:16;;;;;;;7.70;2.53;;;;;;;6.57;93.00;99897.81;4963863;28;20113;-78
2023/01/11 04:25:43;;;;;;;6.78;2.67;;;;;;;6.60;93.14;99892.31;5000740;28;20096;-78
2023/01/11 04:28:10;;;;;;;5.05;2.50;;;;;;;6.60;93.05;99891.50;4996877;28;20060;-78
2023/01/11 04:30:37;;;;;;;7.03;2.88;;;;;;;6.61;93.26;99888.72;4984555;28;20050;-79
2023/01/11 04:33:04;;;;;;;6.10;3.00;;;;;;;6.72;95.64;99887.97;4957901;28;20508;-78
2023/01/11 04:35:30;;;;;;;3.95;2.67;;;;;;;6.74;93.97;99893.97;4963122;28;20052;-78
2023/01/11 04:37:57;;;;;;;7.88;2.72;;;;;;;6.67;93.96;99884.84;4964288;28;20058;-78
2023/01/11 04:40:24;;;;;;;6.97;2.83;;;;;;;6.67;93.81;99883.03;4948403;28;20061;-78
2023/01/11 04:42:51;;;;;;;8.35;2.92;;;;;;;6.63;94.00;99880.72;4964585;28;20050;-78
2023/01/11 04:45:18;;;;;;;7.30;3.28;;;;;;;6.63;94.07;99886.81;4984747;28;20046;-79
2023/01/11 04:47:44;;;;;;;11.68;3.17;;;;;;;6.62;94.12;99876.41;4953407;28;20042;-78
2023/01/11 04:50:11;;;;;;;7.45;2.83;;;;;;;6.63;94.34;99875.44;4961408;28;20048;-78
2023/01/11 04:52:40;;;;;;;5.30;2.47;;;;;;;6.59;94.50;99872.19;4967471;28;20057;-80
2023/01/11 04:55:07;;;;;;;7.53;2.72;;;;;;;6.59;94.62;99871.31;4986967;28;20055;-78
2023/01/11 04:57:34;;;;;;;8.23;2.97;;;;;;;6.59;94.70;99866.91;4970866;28;20061;-78
2023/01/11 05:00:03;;;;;;;8.68;2.90;;;;;;;6.60;94.60;99859.84;4965015;28;21170;-78
2023/01/11 05:02:30;;;;;;;9.23;2.67;;;;;;;6.60;93.95;99863.31;4963401;28;20125;-79
2023/01/11 05:04:57;;;;;;;7.47;3.20;;;;;;;6.59;94.13;99859.00;4978375;28;20050;-78
2023/01/11 05:07:23;;;;;;;5.90;2.58;;;;;;;6.57;94.63;99863.53;4979801;28;20061;-78
2023/01/11 05:09:50;;;;;;;9.40;3.30;;;;;;;6.59;94.11;99852.84;4966890;28;20050;-77
2023/01/11 05:12:17;;;;;;;11.05;2.90;;;;;;;6.60;94.26;99857.19;4984399;28;20394;-78
2023/01/11 05:14:46;;;;;;;9.98;3.45;;;;;;;6.59;94.41;99861.63;4984105;28;20046;-78
2023/01/11 05:17:14;;;;;;;11.30;4.20;;;;;;;6.59;94.31;99861.63;5001982;28;20042;-78
2023/01/11 05:19:41;;;;;;;8.85;3.45;;;;;;;6.61;94.15;99858.88;4968024;28;20048;-80
2023/01/11 05:22:08;;;;;;;7.15;3.38;;;;;;;6.61;94.42;99859.69;4947167;28;20069;-77
2023/01/11 05:24:35;;;;;;;9.52;3.33;;;;;;;6.61;94.20;99851.78;4964533;28;20406;-77
2023/01/11 05:27:02;;;;;;;9.38;2.85;;;;;;;6.62;94.08;99850.84;4966327;28;20061;-77
2023/01/11 05:29:29;;;;;;;10.30;3.58;;;;;;;6.57;94.34;99845.06;4961388;28;20053;-79
2023/01/11 05:31:55;;;;;;;9.10;3.53;;;;;;;6.59;94.65;99847.56;4938047;28;20084;-79
2023/01/11 05:34:22;;;;;;;7.85;3.55;;;;;;;6.62;94.25;99842.94;4965879;28;20048;-79
2023/01/11 05:36:49;;;;;;;8.48;3.30;;;;;;;6.64;94.37;99841.03;4961735;28;20042;-78
2023/01/11 05:39:16;;;;;;;8.43;3.90;;;;;;;6.61;94.58;99837.75;4983724;28;20105;-79
2023/01/11 05:41:42;;;;;;;11.45;3.90;;;;;;;6.61;94.39;99843.88;4987789;28;20073;-79
2023/01/11 05:46:58;;;;;;;11.80;3.45;;;;;;;6.60;94.87;99833.44;4968562;28;20129;-79
2023/01/11 05:49:25;;;;;;;10.07;3.90;;;;;;;6.61;94.83;99832.47;4967141;28;20046;-79
2023/01/11 05:51:51;;;;;;;8.52;3.17;;;;;;;6.61;94.61;99830.69;4960651;28;20080;-79
2023/01/11 05:54:18;;;;;;;8.02;3.70;;;;;;;6.63;94.60;99833.22;4965988;28;20097;-79
2023/01/11 05:56:45;;;;;;;13.35;3.80;;;;;;;6.62;94.41;99815.72;4959040;28;20043;-79
2023/01/11 05:59:11;;;;;;;12.18;4.20;;;;;;;6.64;94.28;99808.50;4959341;28;20046;-79
2023/01/11 06:01:38;;;;;;;8.85;4.07;;;;;;;6.64;94.58;99817.28;4942370;28;20115;-79
2023/01/11 06:04:07;;;;;;;10.55;4.78;;;;;;;6.63;94.67;99815.59;4949920;28;20464;-78
2023/01/11 06:06:33;;;;;;;10.95;4.55;;;;;;;6.63;94.55;99809.47;4952026;28;20497;-79
2023/01/11 06:09:00;;;;;;;9.57;4.38;;;;;;;6.61;94.92;99804.28;4986730;28;20046;-79
2023/01/11 06:11:27;;;;;;;9.93;4.30;;;;;;;6.61;94.92;99814.00;4997680;28;20046;-79
2023/01/11 06:13:54;;;;;;;10.52;4.13;;;;;;;6.63;94.86;99812.94;4967740;28;20985;-79
2023/01/11 06:16:21;;;;;;;8.60;3.60;;;;;;;6.60;95.79;99807.06;4952915;28;20041;-79
2023/01/11 06:18:49;;;;;;;10.55;4.25;;;;;;;6.58;96.04;99812.44;4969806;28;20045;-79
2023/01/11 06:21:17;;;;;;;8.90;4.25;;;;;;;6.60;95.90;99809.69;4983073;28;20046;-79
2023/01/11 06:23:46;;;;;;;13.25;4.95;;;;;;;6.57;96.09;99818.69;4998974;28;20512;-79
2023/01/11 06:26:15;;;;;;;13.90;4.22;;;;;;;6.58;95.51;99812.44;4969662;28;20046;-79
2023/01/11 06:28:42;;;;;;;9.30;4.82;;;;;;;6.62;95.61;99818.34;4957015;28;20441;-79
2023/01/11 06:31:09;;;;;;;9.10;4.10;;;;;;;6.61;96.08;99816.66;4967430;28;20064;-79
2023/01/11 06:33:36;;;;;;;8.73;5.03;;;;;;;6.62;95.86;99807.81;4972642;28;20046;-79
2023/01/11 06:36:05;;;;;;;10.73;5.07;;;;;;;6.62;95.60;99808.63;4964685;28;20084;-80
2023/01/11 06:38:32;;;;;;;9.68;4.50;;;;;;;6.64;95.44;99805.88;4960731;28;20192;-80
2023/01/11 06:41:01;;;;;;;11.20;5.32;;;;;;;6.66;95.15;99799.53;4983286;28;20045;-79
2023/01/11 06:43:28;;;;;;;10.43;4.90;;;;;;;6.67;95.23;99806.50;4981222;28;20042;-80
2023/01/11 06:45:56;;;;;;;12.45;4.93;;;;;;;6.64;95.70;99804.09;4942916;28;20405;-79
2023/01/11 06:48:23;;;;;;;11.00;5.05;;;;;;;6.63;95.97;99797.13;4950856;28;20051;-79
2023/01/11 06:50:54;;;;;;;9.38;4.35;;;;;;;6.63;95.91;99796.28;4963769;28;20046;-79
2023/01/11 06:53:22;;;;;;;8.65;3.92;;;;;;;6.61;96.44;99793.75;4986653;28;20050;-79
2023/01/11 06:55:53;;;;;;;12.38;4.90;;;;;;;6.58;96.97;99788.69;4985627;28;20038;-79
2023/01/11 06:58:22;;;;;;;11.65;4.68;;;;;;;6.62;96.70;99784.88;4983297;28;20498;-79
2023/01/11 07:00:50;;;;;;;9.70;5.20;;;;;;;6.65;96.47;99781.19;4968515;28;20046;-79
2023/01/11 07:03:19;;;;;;;10.07;4.82;;;;;;;6.66;96.32;99778.41;5025349;28;20041;-79
2023/01/11 07:05:46;;;;;;;16.15;5.07;;;;;;;6.63;96.70;99781.28;4986584;28;20551;-80
2023/01/11 07:08:13;;;;;;;13.55;4.80;;;;;;;6.63;96.68;99781.28;5002860;28;20464;-79
2023/01/11 07:10:40;;;;;;;14.13;5.10;;;;;;;6.64;97.01;99769.78;5006580;28;20045;-79
2023/01/11 07:13:07;;;;;;;9.32;5.03;;;;;;;6.64;96.73;99772.44;5019387;28;20139;-79
2023/01/11 07:15:33;;;;;;;16.65;6.25;;;;;;;6.66;96.67;99772.31;5014113;28;20053;-79
2023/01/11 07:18:00;;;;;;;16.85;7.35;;;;;;;6.68;96.55;99773.88;4990198;28;20413;-80
2023/01/11 07:20:27;;;;;;;19.38;9.02;;;;;;;6.68;96.67;99771.25;4988997;28;20053;-81
2023/01/11 07:22:58;;;;;;;17.67;11.48;;;;;;;6.66;96.56;99772.31;4972864;28;20042;-79
2023/01/11 07:25:28;;;;;;;22.27;12.60;;;;;;;6.67;96.73;99763.44;4988365;28;20584;-79
2023/01/11 07:27:57;;;;;;;29.17;14.68;;;;;;;6.68;96.88;99763.31;4998675;28;20038;-79
2023/01/11 07:30:24;;;;;;;30.50;13.93;;;;;;;6.70;96.41;99766.69;4987982;28;20053;-79
2023/01/11 07:32:51;;;;;;;29.65;13.18;;;;;;;6.71;96.45;99762.25;4967189;28;20050;-79
2023/01/11 07:35:17;;;;;;;21.88;9.35;;;;;;;6.74;96.23;99762.03;4979180;28;20049;-79
2023/01/11 07:37:44;;;;;;;25.90;10.43;;;;;;;6.73;96.50;99766.47;4985212;28;20489;-79
2023/01/11 07:40:12;;;;;;;22.98;8.40;;;;;;;6.72;96.33;99769.22;4938881;28;20046;-79
2023/01/11 07:45:24;;;;;;;18.95;6.82;;;;;;;6.72;96.89;99764.78;4968441;28;20055;-79
2023/01/11 07:48:04;;;;;;;20.35;9.40;;;;;;;6.74;96.68;99760.25;4972323;28;20386;-79
2023/01/11 07:50:31;;;;;;;13.60;6.68;;;;;;;6.77;96.43;99759.19;4995605;28;22030;-79
2023/01/11 07:52:58;;;;;;;11.85;5.47;;;;;;;6.78;96.45;99752.09;4978843;28;20536;-79
2023/01/11 07:55:24;;;;;;;13.82;6.05;;;;;;;6.79;96.52;99756.41;4969629;28;20393;-79
2023/01/11 07:57:51;;;;;;;14.48;6.05;;;;;;;6.80;96.38;99750.19;4972822;28;20841;-79
2023/01/11 08:00:18;;;;;;;12.65;5.85;;;;;;;6.83;96.24;99744.69;4999398;28;20061;-79
2023/01/11 08:02:49;;;;;;;13.88;5.18;;;;;;;6.81;96.47;99749.22;4983697;28;20443;-80
2023/01/11 08:05:16;;;;;;;15.52;6.57;;;;;;;6.84;96.28;99741.06;4977778;28;20039;-79
2023/01/11 08:07:42;;;;;;;10.40;5.93;;;;;;;6.83;96.31;99745.53;4970158;28;20042;-79
2023/01/11 08:10:10;;;;;;;11.13;5.75;;;;;;;6.86;96.37;99742.66;4955669;28;20406;-79
2023/01/11 08:15:34;;;;;;;9.80;4.97;;;;;;;6.87;96.91;99743.47;4962239;28;20076;-79
2023/01/11 08:18:05;;;;;;;14.20;5.78;;;;;;;6.87;96.90;99747.00;4968388;28;20065;-79
2023/01/11 08:20:32;;;;;;;12.82;6.18;;;;;;;6.92;97.14;99754.53;4988240;28;20037;-79
2023/01/11 08:23:02;;;;;;;10.38;5.75;;;;;;;6.93;97.09;99753.59;4972991;28;20046;-79
2023/01/11 08:25:29;;;;;;;14.05;6.10;;;;;;;6.95;96.96;99755.16;4968059;28;20129;-79
2023/01/11 08:27:58;;;;;;;11.68;5.78;;;;;;;6.95;97.19;99757.81;4973050;28;20866;-83
2023/01/11 08:30:25;;;;;;;15.23;4.82;;;;;;;6.96;97.26;99759.47;4953926;28;20134;-79
2023/01/11 08:32:52;;;;;;;28.38;7.47;;;;;;;6.96;97.42;99758.63;4974996;28;20056;-79
2023/01/11 08:35:20;;;;;;;18.13;5.57;;;;;;;6.96;97.53;99762.13;4969709;28;20556;-80
2023/01/11 08:37:47;;;;;;;17.80;6.28;;;;;;;6.96;98.07;99769.19;4974474;28;20057;-81
2023/01/11 08:40:13;;;;;;;16.10;7.25;;;;;;;6.95;98.36;99772.81;4986698;28;20072;-79
2023/01/11 08:42:40;;;;;;;19.70;6.43;;;;;;;6.95;98.62;99773.66;4995412;28;20037;-80
2023/01/11 08:45:07;;;;;;;21.63;9.52;;;;;;;6.98;98.38;99775.22;4986434;28;20050;-79
2023/01/11 08:47:34;;;;;;;20.60;8.13;;;;;;;6.99;98.62;99776.88;4978835;28;20540;-79
2023/01/11 08:50:01;;;;;;;19.85;7.97;;;;;;;6.99;98.61;99774.25;4976761;28;20511;-79
2023/01/11 08:52:27;;;;;;;16.88;6.50;;;;;;;7.00;98.50;99781.22;4986859;28;20057;-78
2023/01/11 08:54:54;;;;;;;17.42;6.05;;;;;;;7.02;98.83;99778.47;4969076;28;20414;-79
2023/01/11 08:57:21;;;;;;;14.27;6.75;;;;;;;7.02;98.64;99787.25;4999979;28;20103;-79
2023/01/11 08:59:47;;;;;;;16.92;7.60;;;;;;;7.05;98.62;99780.88;5004190;28;20044;-79
2023/01/11 09:02:14;;;;;;;19.00;8.02;;;;;;;7.05;98.81;99779.09;5004217;28;20050;-79
2023/01/11 09:04:41;;;;;;;15.10;7.57;;;;;;;7.06;98.83;99779.94;4984425;28;20057;-81
2023/01/11 09:07:08;;;;;;;14.05;7.47;;;;;;;7.07;98.91;99784.22;4999873;28;20104;-79
2023/01/11 09:09:34;;;;;;;14.82;7.68;;;;;;;7.05;99.01;99773.81;4990192;28;20104;-79
2023/01/11 09:12:03;;;;;;;15.32;7.47;;;;;;;7.06;99.11;99772.00;4986621;28;20128;-78
2023/01/11 09:14:31;;;;;;;20.42;7.10;;;;;;;7.07;99.11;99768.41;5017636;28;20413;-79
2023/01/11 09:16:58;;;;;;;18.20;7.53;;;;;;;7.08;99.21;99778.03;4999520;28;20048;-78
2023/01/11 09:19:25;;;;;;;16.70;7.95;;;;;;;7.07;99.56;99769.25;5000250;28;20053;-79
2023/01/11 09:21:52;;;;;;;15.85;7.43;;;;;;;7.08;99.72;99770.09;4988259;28;20042;-79
2023/01/11 09:24:19;;;;;;;15.57;7.50;;;;;;;7.09;99.57;99766.50;4985847;28;20050;-78
2023/01/11 09:26:45;;;;;;;14.27;7.22;;;;;;;7.10;99.83;99766.38;4987947;28;20038;-79
2023/01/11 09:29:12;;;;;;;15.38;7.07;;;;;;;7.10;99.77;99763.75;4985384;28;20449;-78
2023/01/11 09:31:39;;;;;;;17.90;7.85;;;;;;;7.11;100.00;99761.94;4976340;28;20038;-78
2023/01/11 09:34:09;;;;;;;17.95;7.85;;;;;;;7.11;100.00;99764.56;4982578;28;20038;-78
2023/01/11 09:36:38;;;;;;;14.80;7.53;;;;;;;7.10;100.00;99776.94;4983141;28;20046;-79
2023/01/11 09:39:11;;;;;;;15.13;7.80;;;;;;;7.09;100.00;99772.59;4962293;28;20056;-78
2023/01/11 09:42:25;;;;;;;14.73;7.85;;;;;;;7.03;100.00;99774.88;4989093;28;20128;-78
2023/01/11 09:44:56;;;;;;;18.90;8.15;;;;;;;7.08;100.00;99770.94;4949211;28;20426;-78
2023/01/11 09:47:35;;;;;;;17.30;7.20;;;;;;;7.06;100.00;99769.38;4970125;28;20408;-79
2023/01/11 09:50:12;;;;;;;19.55;7.72;;;;;;;7.10;100.00;99776.09;4999304;28;20128;-78
2023/01/11 09:52:42;;;;;;;14.88;7.80;;;;;;;7.11;100.00;99768.06;4990928;28;20481;-79
2023/01/11 09:55:14;;;;;;;14.75;7.13;;;;;;;7.11;100.00;99773.34;5001105;28;20051;-79
2023/01/11 09:57:52;;;;;;;14.65;7.68;;;;;;;7.07;100.00;99769.25;4965329;28;20494;-79
2023/01/11 10:00:27;;;;;;;13.18;7.28;;;;;;;7.11;100.00;99768.06;4961347;28;20129;-79
2023/01/11 10:03:13;;;;;;;15.43;6.88;;;;;;;7.16;100.00;99767.72;4967502;28;20050;-78
2023/01/11 10:05:55;;;;;;;10.45;5.63;;;;;;;7.19;100.00;99767.47;4959955;28;20130;-79
2023/01/11 10:08:50;;;;;;;10.32;6.00;;;;;;;7.16;100.00;99762.44;4979828;28;20049;-79
2023/01/11 10:12:13;;;;;;;10.65;5.55;;;;;;;7.20;100.00;99773.59;4981280;28;20144;-79
2023/01/11 10:15:22;;;;;;;10.05;4.95;;;;;;;7.22;100.00;99771.69;4954252;28;20458;-82
2023/01/11 10:18:34;;;;;;;9.35;5.07;;;;;;;7.28;100.00;99765.97;4980446;28;20042;-78
2023/01/11 10:21:28;;;;;;;8.95;5.28;;;;;;;7.29;100.00;99760.53;4950248;28;20073;-82
2023/01/11 10:24:01;;;;;;;7.57;4.80;;;;;;;7.34;100.00;99760.19;5006380;28;20124;-78
2023/01/11 10:26:34;;;;;;;8.82;5.13;;;;;;;7.37;100.00;99768.72;5015423;28;20073;-79
2023/01/11 10:34:55;;;;;;;9.00;5.40;;;;;;;7.39;100.00;99756.22;4949716;28;20058;-79
2023/01/11 10:40:37;;;;;;;7.75;5.25;;;;;;;7.44;100.00;99747.13;4919071;28;20050;-79
2023/01/11 10:43:20;;;;;;;9.73;5.30;;;;;;;7.41;100.00;99742.91;4915992;28;20066;-80
2023/01/11 10:45:50;;;;;;;10.32;6.13;;;;;;;7.47;100.00;99749.53;4957386;28;20150;-79
2023/01/11 10:48:27;;;;;;;12.65;6.45;;;;;;;7.45;100.00;99740.88;4964398;28;20042;-79
2023/01/11 10:51:31;;;;;;;16.08;7.03;;;;;;;7.43;100.00;99741.00;4965763;28;20050;-79
2023/01/11 10:54:16;;;;;;;12.57;6.78;;;;;;;7.42;100.00;99739.31;4950547;28;20109;-80
2023/01/11 10:57:12;;;;;;;11.27;5.50;;;;;;;7.45;100.00;99744.34;4935761;28;20051;-79
2023/01/11 11:00:08;;;;;;;8.27;5.15;;;;;;;7.47;100.00;99739.78;4933163;28;20618;-79
2023/01/11 11:03:08;;;;;;;10.40;5.05;;;;;;;7.47;100.00;99739.78;4996247;28;20054;-79
2023/01/11 11:05:51;;;;;;;7.80;4.72;;;;;;;7.52;100.00;99736.81;4972006;28;20049;-79
2023/01/11 11:08:32;;;;;;;7.22;4.13;;;;;;;7.51;100.00;99741.25;4963018;28;20046;-79
2023/01/11 11:11:02;;;;;;;9.82;4.93;;;;;;;7.57;100.00;99738.13;4975980;28;20065;-79
2023/01/11 11:13:53;;;;;;;10.02;5.32;;;;;;;7.55;100.00;99729.47;4982828;28;20503;-80
2023/01/11 11:16:23;;;;;;;7.38;3.53;;;;;;;7.60;100.00;99735.25;4967105;28;20092;-79
2023/01/11 11:18:51;;;;;;;8.23;3.60;;;;;;;7.63;100.00;99738.59;4995024;28;20141;-79
2023/01/11 11:21:27;;;;;;;7.32;3.80;;;;;;;7.61;100.00;99734.28;4984243;28;20053;-79
2023/01/11 11:23:58;;;;;;;5.10;3.05;;;;;;;7.64;100.00;99721.81;4982834;28;20386;-79
2023/01/11 11:26:29;;;;;;;7.47;3.45;;;;;;;7.66;100.00;99731.31;4969495;28;20100;-79
2023/01/11 11:29:01;;;;;;;7.60;4.95;;;;;;;7.67;100.00;99713.63;4985073;28;20046;-79
2023/01/11 11:31:29;;;;;;;9.15;5.30;;;;;;;7.71;100.00;99720.34;4994456;28;20516;-79
2023/01/11 11:33:56;;;;;;;7.28;5.18;;;;;;;7.71;100.00;99723.00;4968164;28;20068;-79
2023/01/11 11:36:23;;;;;;;11.35;6.22;;;;;;;7.73;100.00;99721.91;4999893;28;20061;-79
2023/01/11 11:39:07;;;;;;;9.25;5.95;;;;;;;7.71;100.00;99720.34;4985272;28;20049;-78
2023/01/11 11:41:51;;;;;;;13.23;6.03;;;;;;;7.67;100.00;99714.47;4953765;28;20045;-78
2023/01/11 11:44:24;;;;;;;12.50;5.05;;;;;;;7.72;100.00;99714.13;4950688;28;20045;-79
2023/01/11 11:46:57;;;;;;;8.05;4.72;;;;;;;7.71;100.00;99710.63;4976011;28;20056;-79
2023/01/11 11:49:24;;;;;;;9.77;5.57;;;;;;;7.75;100.00;99711.22;4945579;28;20042;-79
2023/01/11 11:51:51;;;;;;;13.15;6.95;;;;;;;7.76;100.00;99716.41;4984686;28;20046;-79
2023/01/11 11:54:26;;;;;;;18.90;10.23;;;;;;;7.75;100.00;99713.88;4937347;28;20038;-79
2023/01/11 11:56:53;;;;;;;21.80;11.90;;;;;;;7.73;100.00;99711.34;4992354;28;20061;-80
2023/01/11 11:59:21;;;;;;;16.05;9.35;;;;;;;7.74;100.00;99713.03;4987500;28;20052;-79
2023/01/11 12:02:00;;;;;;;12.20;6.68;;;;;;;7.70;100.00;99708.94;4973783;28;20042;-79
2023/01/11 12:04:33;;;;;;;10.73;6.07;;;;;;;7.74;100.00;99705.09;4997250;28;20051;-79
2023/01/11 12:07:06;;;;;;;16.63;7.47;;;;;;;7.76;100.00;99704.97;4980641;28;20047;-79
2023/01/11 12:09:33;;;;;;;;;;;;;;;7.66;100.00;99704.00;4948063;28;20042;-79
2023/01/11 12:12:00;;;;;;;14.10;7.78;;;;;;;7.75;100.00;99696.19;5015262;28;20310;-78
2023/01/11 12:14:33;;;;;;;13.82;7.95;;;;;;;7.78;100.00;99697.75;4986020;28;20046;-79
2023/01/11 12:17:21;;;;;;;9.75;5.55;;;;;;;7.77;100.00;99693.44;4987583;28;20405;-79
2023/01/11 12:19:48;;;;;;;4.05;2.38;;;;;;;7.87;100.00;99698.84;4983098;28;20091;-79
2023/01/11 12:22:20;;;;;;;7.45;3.78;;;;;;;7.91;100.00;99695.84;5000267;28;20089;-79
2023/01/11 12:25:06;;;;;;;6.43;3.42;;;;;;;7.95;100.00;99697.28;5004056;28;20061;-79